Time;durP1;ratioP1;P1;durP2;ratioP2;P2;SDS_P1;SDS_P2;PMS_P1;PMS_P2;Temp;Humidity;BMP_temperature;BMP_pressure;BME280_temperature;BME280_humidity;BME280_pressure;Samples;Min_cycle;Max_cycle;Signal;HPM_P1;HPM_P2
2022/02/12 00:00:44;;;;;;;52.87;47.90;;;;;;;;;;4982035;28;20019;-82
2022/02/12 00:03:09;;;;;;;52.13;46.83;;;;;;;;;;4984459;28;20015;-83
2022/02/12 00:05:35;;;;;;;50.03;45.73;;;;;;;;;;4972011;29;20067;-83
2022/02/12 00:08:00;;;;;;;52.60;47.07;;;;;;;;;;4985166;28;20020;-84
2022/02/12 00:10:27;;;;;;;52.17;46.90;;;;;;;;;;4972664;28;20042;-82
2022/02/12 00:12:52;;;;;;;;;;;;;;;;;;4988291;28;20029;-83
2022/02/12 00:15:19;;;;;;;50.30;45.72;;;;;;;;;;4971859;28;20404;-82
2022/02/12 00:17:47;;;;;;;51.67;46.90;;;;;;;;;;4982949;28;20028;-82
2022/02/12 00:20:13;;;;;;;52.22;47.00;;;;;;;;;;4972882;28;20020;-85
2022/02/12 00:22:40;;;;;;;54.17;48.65;;;;;;;;;;4988994;28;20023;-84
2022/02/12 00:25:06;;;;;;;53.28;47.45;;;;;;;;;;4976900;28;20049;-84
2022/02/12 00:27:31;;;;;;;52.40;47.17;;;;;;;;;;4986517;28;20031;-84
2022/02/12 00:29:56;;;;;;;51.23;46.20;;;;;;;;;;4988170;28;20015;-84
2022/02/12 00:32:22;;;;;;;50.00;45.53;;;;;;;;;;4989756;28;20090;-86
2022/02/12 00:34:47;;;;;;;50.87;46.53;;;;;;;;;;4988114;28;20026;-82
2022/02/12 00:37:13;;;;;;;51.83;46.80;;;;;;;;;;4981443;28;20047;-84
2022/02/12 00:39:39;;;;;;;51.40;46.33;;;;;;;;;;4975408;28;20051;-85
2022/02/12 00:42:04;;;;;;;49.90;45.67;;;;;;;;;;4992285;28;20008;-84
2022/02/12 00:44:29;;;;;;;49.30;45.03;;;;;;;;;;4994798;28;20091;-84
2022/02/12 00:46:55;;;;;;;52.20;47.07;;;;;;;;;;4977226;28;20012;-82
2022/02/12 00:49:21;;;;;;;50.90;46.15;;;;;;;;;;4977401;28;20034;-81
2022/02/12 00:51:46;;;;;;;48.83;45.10;;;;;;;;;;4978589;28;20026;-82
2022/02/12 00:54:11;;;;;;;55.40;46.27;;;;;;;;;;4993856;28;20039;-82
2022/02/12 00:56:37;;;;;;;50.73;46.10;;;;;;;;;;4992513;28;20028;-82
2022/02/12 00:59:02;;;;;;;50.87;46.00;;;;;;;;;;4972520;28;20019;-83
2022/02/12 01:01:27;;;;;;;51.33;46.83;;;;;;;;;;4984247;28;20041;-84
2022/02/12 01:03:53;;;;;;;51.87;47.13;;;;;;;;;;4981470;28;20024;-83
2022/02/12 01:06:19;;;;;;;51.72;46.85;;;;;;;;;;4990971;28;20039;-83
2022/02/12 01:08:44;;;;;;;49.97;45.57;;;;;;;;;;4978240;28;20030;-82
2022/02/12 01:11:10;;;;;;;51.00;46.77;;;;;;;;;;4961488;29;20087;-84
2022/02/12 01:13:36;;;;;;;50.70;46.22;;;;;;;;;;4975882;28;20086;-83
2022/02/12 01:16:01;;;;;;;52.17;46.53;;;;;;;;;;4959675;29;20050;-82
2022/02/12 01:18:26;;;;;;;52.60;47.37;;;;;;;;;;4974937;28;20045;-83
2022/02/12 01:20:51;;;;;;;51.23;46.60;;;;;;;;;;4976317;28;20011;-82
2022/02/12 01:23:17;;;;;;;51.00;46.07;;;;;;;;;;4961466;28;20031;-82
2022/02/12 01:25:44;;;;;;;52.50;47.53;;;;;;;;;;4979304;28;20105;-83
2022/02/12 01:28:09;;;;;;;51.05;46.38;;;;;;;;;;4976964;28;20084;-81
2022/02/12 01:30:35;;;;;;;51.87;47.27;;;;;;;;;;4978305;28;20066;-82
2022/02/12 01:33:00;;;;;;;52.13;46.93;;;;;;;;;;4964981;28;20102;-82
2022/02/12 01:35:25;;;;;;;52.70;47.37;;;;;;;;;;4981146;28;20446;-83
2022/02/12 01:37:52;;;;;;;52.47;47.53;;;;;;;;;;4979024;28;20172;-82
2022/02/12 01:40:21;;;;;;;;;;;;;;;;;;4978840;28;20034;-83
2022/02/12 01:42:46;;;;;;;62.28;49.95;;;;;;;;;;4978273;28;19920;-83
2022/02/12 01:45:11;;;;;;;52.97;47.90;;;;;;;;;;4963220;29;20109;-81
2022/02/12 01:47:37;;;;;;;52.83;47.92;;;;;;;;;;4977827;28;20035;-82
2022/02/12 01:50:02;;;;;;;51.90;47.13;;;;;;;;;;4981259;28;20056;-81
2022/02/12 01:52:32;;;;;;;54.13;48.97;;;;;;;;;;4965656;28;20027;-81
2022/02/12 01:54:57;;;;;;;54.45;48.78;;;;;;;;;;4979785;28;20098;-81
2022/02/12 01:57:23;;;;;;;54.50;48.97;;;;;;;;;;4979116;28;20083;-81
2022/02/12 01:59:48;;;;;;;53.70;48.47;;;;;;;;;;4963809;29;20028;-81
2022/02/12 02:02:13;;;;;;;56.47;50.53;;;;;;;;;;4966601;29;20027;-82
2022/02/12 02:04:39;;;;;;;53.03;47.55;;;;;;;;;;4979540;28;20019;-82
2022/02/12 02:07:04;;;;;;;54.90;49.88;;;;;;;;;;4979683;28;20480;-81
2022/02/12 02:09:30;;;;;;;54.50;48.83;;;;;;;;;;4963632;28;20056;-81
2022/02/12 02:11:55;;;;;;;53.23;48.33;;;;;;;;;;4967225;28;20020;-81
2022/02/12 02:14:28;;;;;;;52.90;47.70;;;;;;;;;;4961584;28;20051;-82
2022/02/12 02:16:54;;;;;;;54.15;48.60;;;;;;;;;;4965142;28;20027;-82
2022/02/12 02:19:19;;;;;;;53.93;48.23;;;;;;;;;;4965544;28;20031;-82
2022/02/12 02:21:44;;;;;;;52.47;47.50;;;;;;;;;;4984542;28;20112;-83
2022/02/12 02:24:09;;;;;;;52.87;47.80;;;;;;;;;;4990670;28;20031;-82
2022/02/12 02:26:35;;;;;;;53.83;48.57;;;;;;;;;;4979541;28;20020;-82
2022/02/12 02:29:00;;;;;;;54.43;49.17;;;;;;;;;;4994219;28;20018;-83
2022/02/12 02:31:26;;;;;;;54.87;49.10;;;;;;;;;;4979610;28;20172;-83
2022/02/12 02:33:51;;;;;;;54.80;49.27;;;;;;;;;;4973725;29;20086;-83
2022/02/12 02:36:16;;;;;;;53.97;48.80;;;;;;;;;;4983366;28;20022;-83
2022/02/12 02:38:42;;;;;;;52.90;47.43;;;;;;;;;;4972702;28;20114;-83
2022/02/12 02:41:07;;;;;;;51.77;46.93;;;;;;;;;;4975315;29;20019;-83
2022/02/12 02:43:33;;;;;;;53.73;48.13;;;;;;;;;;4972445;29;20035;-81
2022/02/12 02:45:58;;;;;;;52.30;47.60;;;;;;;;;;4969217;29;20034;-81
2022/02/12 02:48:23;;;;;;;51.33;46.83;;;;;;;;;;4966935;29;20035;-82
2022/02/12 02:56:17;;;;;;;53.58;47.83;;;;;;;;;;4963426;28;20026;-82
2022/02/12 02:58:44;;;;;;;52.92;47.55;;;;;;;;;;4958693;28;20027;-82
2022/02/12 03:01:09;;;;;;;;;;;;;;;;;;4975276;28;20020;-82
2022/02/12 03:03:35;;;;;;;51.28;46.28;;;;;;;;;;4973801;28;19937;-81
2022/02/12 03:06:00;;;;;;;50.47;45.85;;;;;;;;;;4962705;28;20082;-82
2022/02/12 03:08:26;;;;;;;52.37;47.10;;;;;;;;;;4965270;28;20031;-82
2022/02/12 03:10:52;;;;;;;50.53;46.03;;;;;;;;;;4988366;28;20019;-81
2022/02/12 03:13:17;;;;;;;50.83;46.03;;;;;;;;;;4989870;28;20035;-82
2022/02/12 03:15:42;;;;;;;50.65;46.00;;;;;;;;;;4990611;28;20273;-81
2022/02/12 03:18:08;;;;;;;51.50;46.57;;;;;;;;;;4973787;28;20018;-81
2022/02/12 03:20:33;;;;;;;52.00;46.97;;;;;;;;;;4977132;28;20050;-80
2022/02/12 03:22:58;;;;;;;52.20;47.30;;;;;;;;;;4976298;28;20086;-81
2022/02/12 03:25:23;;;;;;;50.63;46.00;;;;;;;;;;4991457;28;20023;-82
2022/02/12 03:27:57;;;;;;;52.10;47.20;;;;;;;;;;4966279;28;20019;-81
2022/02/12 03:30:22;;;;;;;52.65;47.60;;;;;;;;;;4974444;28;20023;-81
2022/02/12 03:32:47;;;;;;;52.40;47.07;;;;;;;;;;4958936;28;20027;-81
2022/02/12 03:35:13;;;;;;;52.03;47.03;;;;;;;;;;4959935;29;20023;-81
2022/02/12 03:37:38;;;;;;;53.40;47.80;;;;;;;;;;4955452;29;20047;-81
2022/02/12 03:40:03;;;;;;;50.77;46.03;;;;;;;;;;4974898;28;20413;-81
2022/02/12 03:42:29;;;;;;;51.70;46.77;;;;;;;;;;4975663;28;20162;-81
2022/02/12 03:44:54;;;;;;;50.47;46.03;;;;;;;;;;4974075;28;20034;-81
2022/02/12 03:47:19;;;;;;;55.30;49.53;;;;;;;;;;4955997;29;20529;-80
2022/02/12 03:49:44;;;;;;;52.67;47.63;;;;;;;;;;4975941;28;20069;-81
2022/02/12 03:52:09;;;;;;;52.80;47.53;;;;;;;;;;4961462;28;20031;-81
2022/02/12 03:54:35;;;;;;;52.43;47.33;;;;;;;;;;4975977;28;20092;-82
2022/02/12 03:57:00;;;;;;;53.93;48.43;;;;;;;;;;4955498;28;20027;-81
2022/02/12 03:59:25;;;;;;;52.23;47.53;;;;;;;;;;4960314;29;20026;-80
2022/02/12 04:01:50;;;;;;;52.63;47.40;;;;;;;;;;4976021;28;20031;-80
2022/02/12 04:04:15;;;;;;;52.53;47.80;;;;;;;;;;4960675;29;20039;-80
2022/02/12 04:06:41;;;;;;;54.50;49.17;;;;;;;;;;4974070;28;20019;-81
2022/02/12 04:09:06;;;;;;;52.90;47.97;;;;;;;;;;4973429;28;20445;-82
2022/02/12 04:11:31;;;;;;;52.70;47.43;;;;;;;;;;4962018;28;20033;-81
2022/02/12 04:13:56;;;;;;;52.67;47.67;;;;;;;;;;4979995;28;20051;-81
2022/02/12 04:16:21;;;;;;;54.90;49.37;;;;;;;;;;4962386;29;20426;-81
2022/02/12 04:18:46;;;;;;;52.20;47.67;;;;;;;;;;4957254;28;20481;-81
2022/02/12 04:21:12;;;;;;;53.27;47.77;;;;;;;;;;4966765;28;20023;-81
2022/02/12 04:23:37;;;;;;;52.35;47.42;;;;;;;;;;4974579;28;20027;-81
2022/02/12 04:26:05;;;;;;;52.70;47.90;;;;;;;;;;4974297;28;20469;-81
2022/02/12 04:28:36;;;;;;;54.63;49.17;;;;;;;;;;4950532;29;20175;-82
2022/02/12 04:31:01;;;;;;;65.25;52.45;;;;;;;;;;4971501;28;20039;-81
2022/02/12 04:33:26;;;;;;;54.20;48.77;;;;;;;;;;4972785;28;20100;-81
2022/02/12 04:35:51;;;;;;;54.23;48.97;;;;;;;;;;4973801;28;20449;-81
2022/02/12 04:38:16;;;;;;;54.17;49.13;;;;;;;;;;4955547;28;20460;-81
2022/02/12 04:40:41;;;;;;;54.13;48.90;;;;;;;;;;4957905;28;20043;-81
2022/02/12 04:43:07;;;;;;;52.60;47.90;;;;;;;;;;4958989;28;20328;-81
2022/02/12 04:45:32;;;;;;;53.43;47.77;;;;;;;;;;4975806;28;20500;-81
2022/02/12 04:47:57;;;;;;;54.27;49.20;;;;;;;;;;4953150;29;20074;-81
2022/02/12 04:50:22;;;;;;;53.22;48.10;;;;;;;;;;4972537;28;20019;-81
2022/02/12 04:52:48;;;;;;;55.73;49.93;;;;;;;;;;4972970;28;20139;-79
2022/02/12 04:55:14;;;;;;;52.60;47.88;;;;;;;;;;4973486;28;20047;-81
2022/02/12 04:57:39;;;;;;;55.08;49.35;;;;;;;;;;4947270;29;20089;-81
2022/02/12 05:00:05;;;;;;;53.23;48.43;;;;;;;;;;4972196;28;20023;-81
2022/02/12 05:02:30;;;;;;;54.70;49.33;;;;;;;;;;4972137;28;20103;-80
2022/02/12 05:04:55;;;;;;;53.80;48.80;;;;;;;;;;4971896;28;20119;-81
2022/02/12 05:07:21;;;;;;;59.90;51.10;;;;;;;;;;4974461;28;20077;-82
2022/02/12 05:09:46;;;;;;;54.43;49.23;;;;;;;;;;4960162;29;20397;-83
2022/02/12 05:12:11;;;;;;;53.33;47.83;;;;;;;;;;4961123;29;20111;-81
2022/02/12 05:14:36;;;;;;;54.90;49.63;;;;;;;;;;4971793;28;20051;-80
2022/02/12 05:17:02;;;;;;;56.80;51.13;;;;;;;;;;4945774;29;20022;-80
2022/02/12 05:19:27;;;;;;;53.80;48.63;;;;;;;;;;4956740;29;20082;-83
2022/02/12 05:21:53;;;;;;;54.90;49.53;;;;;;;;;;4974931;28;20661;-83
2022/02/12 05:24:18;;;;;;;55.42;50.15;;;;;;;;;;4974002;28;20031;-81
2022/02/12 05:26:44;;;;;;;55.97;50.37;;;;;;;;;;4974104;28;20203;-82
2022/02/12 05:29:09;;;;;;;55.17;49.57;;;;;;;;;;4955314;28;20046;-82
2022/02/12 05:31:36;;;;;;;54.67;48.67;;;;;;;;;;4973398;28;20063;-81
2022/02/12 05:34:01;;;;;;;54.97;49.50;;;;;;;;;;4950252;28;20024;-82
2022/02/12 05:36:26;;;;;;;54.92;49.75;;;;;;;;;;4936854;29;20026;-82
2022/02/12 05:38:51;;;;;;;52.80;47.77;;;;;;;;;;4950592;29;20031;-81
2022/02/12 05:41:16;;;;;;;55.23;49.83;;;;;;;;;;4957045;29;20027;-81
2022/02/12 05:43:42;;;;;;;56.57;50.30;;;;;;;;;;4956755;28;20089;-83
2022/02/12 05:46:07;;;;;;;54.30;48.87;;;;;;;;;;4956263;29;20027;-82
2022/02/12 05:48:33;;;;;;;51.53;46.87;;;;;;;;;;4954998;28;20043;-82
2022/02/12 05:50:58;;;;;;;53.15;47.85;;;;;;;;;;4973197;28;20121;-83
2022/02/12 05:53:24;;;;;;;52.10;47.60;;;;;;;;;;4972590;28;20027;-82
2022/02/12 05:55:49;;;;;;;53.30;48.00;;;;;;;;;;4972668;28;20472;-83
2022/02/12 05:58:14;;;;;;;55.70;49.70;;;;;;;;;;4969268;28;20023;-83
2022/02/12 06:00:40;;;;;;;53.27;48.33;;;;;;;;;;4970313;28;20060;-82
2022/02/12 06:03:05;;;;;;;57.63;49.70;;;;;;;;;;4956060;28;20027;-82
2022/02/12 06:05:31;;;;;;;53.93;47.87;;;;;;;;;;4975424;28;20031;-82
2022/02/12 06:07:56;;;;;;;54.63;49.40;;;;;;;;;;4971400;28;20114;-82
2022/02/12 06:10:21;;;;;;;54.67;48.73;;;;;;;;;;4970605;28;20023;-83
2022/02/12 06:12:47;;;;;;;54.37;48.50;;;;;;;;;;4956219;29;20035;-82
2022/02/12 06:15:12;;;;;;;52.90;47.73;;;;;;;;;;4971451;28;20027;-83
2022/02/12 06:17:38;;;;;;;52.37;47.70;;;;;;;;;;4952872;29;20039;-82
2022/02/12 06:20:03;;;;;;;55.53;48.70;;;;;;;;;;4958722;28;20027;-80
2022/02/12 06:22:29;;;;;;;53.17;47.57;;;;;;;;;;4959756;28;20043;-80
2022/02/12 06:24:54;;;;;;;52.33;47.17;;;;;;;;;;4982434;28;20054;-79
2022/02/12 06:27:20;;;;;;;53.37;48.13;;;;;;;;;;4960900;29;20086;-79
2022/02/12 06:29:45;;;;;;;52.15;47.03;;;;;;;;;;4958269;28;20027;-80
2022/02/12 06:32:10;;;;;;;51.57;46.93;;;;;;;;;;4971397;28;20057;-81
2022/02/12 06:34:35;;;;;;;51.07;46.23;;;;;;;;;;4972878;28;20023;-80
2022/02/12 06:37:01;;;;;;;53.50;47.77;;;;;;;;;;4971633;28;20654;-82
2022/02/12 06:39:27;;;;;;;50.88;46.40;;;;;;;;;;4957490;29;20070;-82
2022/02/12 06:41:52;;;;;;;51.03;46.43;;;;;;;;;;4956104;29;20031;-83
2022/02/12 06:44:17;;;;;;;49.70;45.53;;;;;;;;;;4954763;28;20050;-82
2022/02/12 06:46:43;;;;;;;54.97;48.10;;;;;;;;;;4959767;28;20020;-85
2022/02/12 06:49:08;;;;;;;49.80;45.77;;;;;;;;;;4956769;29;20544;-84
2022/02/12 06:51:33;;;;;;;50.70;46.23;;;;;;;;;;4956865;28;20039;-84
2022/02/12 06:53:58;;;;;;;52.07;47.03;;;;;;;;;;4971183;28;20019;-83
2022/02/12 06:56:24;;;;;;;53.13;47.47;;;;;;;;;;4957988;28;20023;-83
2022/02/12 06:58:49;;;;;;;50.83;46.10;;;;;;;;;;4959187;28;20066;-83
2022/02/12 07:01:14;;;;;;;51.27;46.57;;;;;;;;;;4975520;28;20019;-81
2022/02/12 07:03:40;;;;;;;51.63;46.55;;;;;;;;;;4958725;28;20066;-82
2022/02/12 07:06:05;;;;;;;51.40;46.70;;;;;;;;;;4957563;28;20059;-81
2022/02/12 07:08:30;;;;;;;51.50;46.47;;;;;;;;;;4957834;29;20696;-82
2022/02/12 07:10:55;;;;;;;51.37;46.73;;;;;;;;;;4963602;28;20035;-82
2022/02/12 07:13:20;;;;;;;52.00;46.73;;;;;;;;;;4966717;28;20023;-83
2022/02/12 07:15:46;;;;;;;51.20;46.27;;;;;;;;;;4979626;28;20019;-83
2022/02/12 07:18:12;;;;;;;50.95;46.70;;;;;;;;;;4976810;28;20019;-84
2022/02/12 07:20:37;;;;;;;49.83;45.75;;;;;;;;;;4994621;28;20023;-84
2022/02/12 07:23:02;;;;;;;50.27;45.60;;;;;;;;;;4984051;28;20070;-83
2022/02/12 07:25:28;;;;;;;51.33;46.73;;;;;;;;;;4977586;28;20023;-84
2022/02/12 07:27:55;;;;;;;53.50;47.87;;;;;;;;;;4954880;29;20019;-84
2022/02/12 07:30:22;;;;;;;52.58;47.58;;;;;;;;;;4958454;28;20027;-83
2022/02/12 07:32:47;;;;;;;55.53;48.28;;;;;;;;;;4973848;28;20043;-82
2022/02/12 07:35:13;;;;;;;53.67;48.23;;;;;;;;;;4958084;29;20095;-81
2022/02/12 07:37:39;;;;;;;52.58;47.42;;;;;;;;;;4973087;28;20263;-80
2022/02/12 07:40:05;;;;;;;53.20;47.75;;;;;;;;;;4976062;28;20031;-83
2022/02/12 07:42:31;;;;;;;55.67;48.47;;;;;;;;;;4958393;28;20062;-82
2022/02/12 07:44:56;;;;;;;53.70;48.03;;;;;;;;;;4973713;28;20634;-81
2022/02/12 07:47:21;;;;;;;56.37;50.13;;;;;;;;;;4969860;28;20042;-82
2022/02/12 07:49:46;;;;;;;53.57;47.87;;;;;;;;;;4955411;29;20079;-81
2022/02/12 07:52:11;;;;;;;54.17;47.83;;;;;;;;;;4971960;28;20031;-81
2022/02/12 07:54:37;;;;;;;52.87;47.57;;;;;;;;;;4972281;28;20119;-80
2022/02/12 07:57:02;;;;;;;61.50;49.23;;;;;;;;;;4967034;28;20026;-81
2022/02/12 07:59:27;;;;;;;53.13;47.77;;;;;;;;;;4959817;29;20030;-83
2022/02/12 08:01:53;;;;;;;52.30;47.20;;;;;;;;;;4965076;29;20049;-84
2022/02/12 08:04:18;;;;;;;53.17;48.10;;;;;;;;;;4967053;28;20047;-83
2022/02/12 08:09:27;;;;;;;52.45;47.55;;;;;;;;;;4970487;29;20103;-83
2022/02/12 08:12:01;;;;;;;51.93;47.07;;;;;;;;;;4969463;29;20027;-82
2022/02/12 08:14:27;;;;;;;53.78;48.83;;;;;;;;;;4968495;28;20058;-83
2022/02/12 08:16:52;;;;;;;53.20;48.20;;;;;;;;;;4967840;28;20027;-83
2022/02/12 08:19:17;;;;;;;54.53;49.03;;;;;;;;;;4964341;29;20163;-82
2022/02/12 08:21:42;;;;;;;54.53;48.73;;;;;;;;;;4979367;28;20362;-82
2022/02/12 08:24:09;;;;;;;54.70;49.30;;;;;;;;;;4975774;28;20046;-83
2022/02/12 08:26:34;;;;;;;;;;;;;;;;;;4976720;28;20505;-83
2022/02/12 08:29:00;;;;;;;54.35;49.10;;;;;;;;;;4958614;28;19910;-82
2022/02/12 08:31:25;;;;;;;55.90;49.90;;;;;;;;;;4976429;28;20035;-83
2022/02/12 08:33:51;;;;;;;57.03;50.93;;;;;;;;;;4976477;28;20031;-83
2022/02/12 08:36:16;;;;;;;65.63;53.40;;;;;;;;;;4957627;29;20031;-82
2022/02/12 08:38:41;;;;;;;54.40;48.97;;;;;;;;;;4955233;29;20019;-84
2022/02/12 08:41:06;;;;;;;56.13;50.60;;;;;;;;;;4957975;29;20035;-84
2022/02/12 08:43:32;;;;;;;58.53;52.33;;;;;;;;;;4975450;28;20023;-81
2022/02/12 08:45:57;;;;;;;56.23;50.47;;;;;;;;;;4975629;28;20020;-82
2022/02/12 08:48:22;;;;;;;55.80;50.25;;;;;;;;;;4972878;28;20027;-79
2022/02/12 08:50:47;;;;;;;59.17;52.73;;;;;;;;;;4979676;28;20356;-80
2022/02/12 08:53:12;;;;;;;58.33;51.00;;;;;;;;;;4960027;28;20023;-79
2022/02/12 08:55:39;;;;;;;60.22;52.35;;;;;;;;;;4959638;28;20420;-80
2022/02/12 08:58:04;;;;;;;57.60;51.40;;;;;;;;;;4966536;28;20532;-81
2022/02/12 09:00:29;;;;;;;58.03;51.90;;;;;;;;;;4975396;28;20019;-80
2022/02/12 09:02:55;;;;;;;64.00;52.63;;;;;;;;;;4959292;28;20453;-84
2022/02/12 09:05:21;;;;;;;57.50;51.40;;;;;;;;;;4961964;29;20137;-83
2022/02/12 09:07:46;;;;;;;57.55;51.05;;;;;;;;;;4969880;28;20031;-83
2022/02/12 09:10:12;;;;;;;68.47;53.80;;;;;;;;;;4963685;28;20709;-81
2022/02/12 09:12:37;;;;;;;72.63;56.50;;;;;;;;;;4944192;28;20027;-78
2022/02/12 09:15:03;;;;;;;72.20;56.20;;;;;;;;;;4966777;28;20019;-78
2022/02/12 09:18:13;;;;;;;64.23;52.33;;;;;;;;;;4965716;28;20136;-79
2022/02/12 09:21:00;;;;;;;57.45;51.40;;;;;;;;;;4951802;28;20203;-82
2022/02/12 09:23:33;;;;;;;57.60;51.00;;;;;;;;;;4946059;29;20095;-80
2022/02/12 09:25:58;;;;;;;62.67;52.05;;;;;;;;;;4961690;29;20047;-81
2022/02/12 09:28:23;;;;;;;57.23;51.07;;;;;;;;;;4960086;28;20027;-81
2022/02/12 09:30:49;;;;;;;58.50;49.73;;;;;;;;;;4964684;29;20508;-81
2022/02/12 09:33:14;;;;;;;53.23;48.00;;;;;;;;;;4983040;28;20030;-81
2022/02/12 09:35:39;;;;;;;54.57;48.97;;;;;;;;;;4983338;28;20023;-83
2022/02/12 09:38:04;;;;;;;72.13;52.40;;;;;;;;;;4981456;28;20026;-80
2022/02/12 09:40:30;;;;;;;57.00;50.80;;;;;;;;;;4988119;28;20025;-83
2022/02/12 09:42:59;;;;;;;55.50;49.83;;;;;;;;;;4974936;28;20016;-82
2022/02/12 09:45:24;;;;;;;55.67;49.95;;;;;;;;;;4988931;28;20011;-82
2022/02/12 09:47:50;;;;;;;57.10;50.17;;;;;;;;;;4962779;28;20508;-81
2022/02/12 09:50:16;;;;;;;55.30;49.77;;;;;;;;;;4964591;29;20031;-80
2022/02/12 09:52:43;;;;;;;;;;;;;;;;;;4979332;28;20027;-81
2022/02/12 09:55:08;;;;;;;53.28;48.33;;;;;;;;;;4973009;28;19954;-81
2022/02/12 09:57:33;;;;;;;53.20;48.00;;;;;;;;;;4952787;29;20028;-81
2022/02/12 10:00:03;;;;;;;54.60;49.27;;;;;;;;;;4956111;28;20023;-81
2022/02/12 10:02:29;;;;;;;69.40;54.17;;;;;;;;;;4969316;28;20024;-82
2022/02/12 10:05:13;;;;;;;55.47;49.53;;;;;;;;;;4965514;28;20488;-80
2022/02/12 10:07:38;;;;;;;69.05;52.72;;;;;;;;;;4967419;28;20015;-79
2022/02/12 10:10:12;;;;;;;53.50;48.10;;;;;;;;;;4950508;29;20470;-79
2022/02/12 10:12:38;;;;;;;76.10;55.10;;;;;;;;;;4967928;28;20535;-77
2022/02/12 10:15:04;;;;;;;55.77;50.17;;;;;;;;;;4955533;29;20051;-79
2022/02/12 10:17:29;;;;;;;56.17;50.42;;;;;;;;;;4953904;28;20532;-78
2022/02/12 10:19:54;;;;;;;63.77;51.70;;;;;;;;;;4966028;28;20053;-79
2022/02/12 10:22:20;;;;;;;55.47;48.67;;;;;;;;;;4970413;28;20025;-82
2022/02/12 10:24:53;;;;;;;54.00;48.80;;;;;;;;;;4960856;28;20074;-82
2022/02/12 10:27:22;;;;;;;57.47;50.97;;;;;;;;;;4958615;28;20038;-79
2022/02/12 10:29:47;;;;;;;73.80;54.40;;;;;;;;;;4969912;28;20031;-79
2022/02/12 10:32:20;;;;;;;64.80;52.50;;;;;;;;;;4959849;28;20099;-81
2022/02/12 10:34:45;;;;;;;56.22;50.05;;;;;;;;;;4971998;28;20031;-83
2022/02/12 10:37:18;;;;;;;74.80;52.87;;;;;;;;;;4957948;28;20025;-80
2022/02/12 10:39:52;;;;;;;58.13;50.63;;;;;;;;;;4957923;29;20261;-82
2022/02/12 10:42:17;;;;;;;54.88;49.03;;;;;;;;;;4996004;23;20047;-81
2022/02/12 10:44:43;;;;;;;56.03;49.63;;;;;;;;;;4963288;28;20054;-80
2022/02/12 10:47:11;;;;;;;53.78;48.17;;;;;;;;;;4967021;28;20095;-82
2022/02/12 10:49:37;;;;;;;54.00;48.63;;;;;;;;;;4965608;29;20128;-81
2022/02/12 10:52:02;;;;;;;53.53;48.07;;;;;;;;;;4965063;29;20023;-81
2022/02/12 10:54:27;;;;;;;54.37;48.40;;;;;;;;;;4952293;29;20070;-81
2022/02/12 10:56:53;;;;;;;53.30;47.83;;;;;;;;;;4963478;29;20050;-80
2022/02/12 10:59:20;;;;;;;54.67;49.07;;;;;;;;;;4962183;28;20102;-79
2022/02/12 11:01:45;;;;;;;53.50;48.22;;;;;;;;;;4963706;28;20030;-80
2022/02/12 11:04:12;;;;;;;52.20;47.07;;;;;;;;;;4960590;29;20079;-79
2022/02/12 11:06:38;;;;;;;54.15;48.25;;;;;;;;;;4961521;28;20043;-80
2022/02/12 11:09:04;;;;;;;53.33;48.10;;;;;;;;;;4966638;29;20055;-80
2022/02/12 11:11:32;;;;;;;53.88;48.28;;;;;;;;;;4974199;28;20035;-81
2022/02/12 11:13:58;;;;;;;53.13;47.83;;;;;;;;;;4965033;28;20023;-79
2022/02/12 11:16:24;;;;;;;53.92;48.42;;;;;;;;;;4964814;28;20021;-79
2022/02/12 11:18:49;;;;;;;53.00;47.77;;;;;;;;;;4970334;28;20125;-80
2022/02/12 11:21:15;;;;;;;52.73;47.60;;;;;;;;;;4970271;29;20031;-80
2022/02/12 11:23:40;;;;;;;53.27;47.97;;;;;;;;;;4963690;29;20031;-82
2022/02/12 11:26:05;;;;;;;53.17;47.80;;;;;;;;;;4960485;28;20031;-80
2022/02/12 11:28:31;;;;;;;52.63;47.45;;;;;;;;;;4960480;29;20031;-81
2022/02/12 11:31:15;;;;;;;53.15;47.88;;;;;;;;;;4962178;28;20026;-80
2022/02/12 11:34:00;;;;;;;54.15;48.40;;;;;;;;;;4957426;28;20038;-79
2022/02/12 11:36:26;;;;;;;54.72;48.72;;;;;;;;;;4956465;29;20030;-80
2022/02/12 11:39:03;;;;;;;52.27;47.43;;;;;;;;;;4959722;28;20106;-80
2022/02/12 11:41:28;;;;;;;53.00;47.95;;;;;;;;;;4959883;28;20035;-80
2022/02/12 11:43:54;;;;;;;52.67;47.77;;;;;;;;;;4956687;28;20031;-79
2022/02/12 11:46:42;;;;;;;54.00;48.65;;;;;;;;;;4962684;28;20715;-81
2022/02/12 11:49:27;;;;;;;56.88;48.95;;;;;;;;;;4960812;28;20506;-81
2022/02/12 11:51:53;;;;;;;57.63;49.58;;;;;;;;;;4953994;28;20031;-83
2022/02/12 11:54:37;;;;;;;54.42;48.92;;;;;;;;;;4960569;28;20034;-83
2022/02/12 11:57:03;;;;;;;54.20;48.72;;;;;;;;;;4967754;28;20023;-81
2022/02/12 11:59:28;;;;;;;54.97;48.47;;;;;;;;;;4970641;29;20130;-83
2022/02/12 12:01:53;;;;;;;55.60;49.57;;;;;;;;;;4973741;28;20027;-82
2022/02/12 12:04:21;;;;;;;53.77;48.40;;;;;;;;;;4961056;28;20086;-81
2022/02/12 12:06:59;;;;;;;55.15;49.22;;;;;;;;;;4963582;28;20506;-80
2022/02/12 12:09:25;;;;;;;53.47;48.05;;;;;;;;;;4970872;29;20053;-82
2022/02/12 12:12:09;;;;;;;59.65;49.80;;;;;;;;;;4966164;28;20046;-80
2022/02/12 12:14:34;;;;;;;54.80;49.10;;;;;;;;;;4973492;28;20074;-82
2022/02/12 12:17:00;;;;;;;52.63;47.70;;;;;;;;;;4965511;28;20016;-80
2022/02/12 12:19:29;;;;;;;55.22;49.22;;;;;;;;;;4980021;28;20073;-81
2022/02/12 12:21:55;;;;;;;54.92;49.25;;;;;;;;;;4976613;28;20043;-80
2022/02/12 12:24:20;;;;;;;56.63;50.47;;;;;;;;;;4975465;28;20015;-81
2022/02/12 12:26:48;;;;;;;53.33;48.00;;;;;;;;;;4975842;28;20349;-81
2022/02/12 12:32:02;;;;;;;55.13;49.28;;;;;;;;;;4980019;28;20022;-79
2022/02/12 12:34:28;;;;;;;53.78;48.47;;;;;;;;;;4967206;28;20055;-81
2022/02/12 12:36:56;;;;;;;54.08;48.40;;;;;;;;;;4977729;28;20580;-79
2022/02/12 12:39:29;;;;;;;55.45;49.28;;;;;;;;;;4977829;28;20004;-80
2022/02/12 12:41:55;;;;;;;57.15;50.30;;;;;;;;;;4971830;28;20035;-80
2022/02/12 12:44:23;;;;;;;54.50;48.95;;;;;;;;;;4957620;28;20015;-81
2022/02/12 12:46:50;;;;;;;54.60;48.85;;;;;;;;;;4950994;29;20066;-83
2022/02/12 12:49:15;;;;;;;;;;;;;;;;;;4958530;28;20059;-82
2022/02/12 12:51:50;;;;;;;53.58;48.45;;;;;;;;;;4976265;28;19982;-79
2022/02/12 12:54:15;;;;;;;54.30;48.88;;;;;;;;;;4957583;29;20361;-81
2022/02/12 12:56:40;;;;;;;56.80;50.57;;;;;;;;;;4955727;29;20047;-81
2022/02/12 12:59:07;;;;;;;56.57;50.60;;;;;;;;;;4946923;28;20087;-82
2022/02/12 13:01:32;;;;;;;53.53;48.42;;;;;;;;;;4962867;28;20011;-82
2022/02/12 13:03:58;;;;;;;58.20;50.43;;;;;;;;;;4961025;28;20038;-81
2022/02/12 13:06:23;;;;;;;61.87;51.33;;;;;;;;;;4961977;28;20106;-82
2022/02/12 13:08:49;;;;;;;72.43;52.50;;;;;;;;;;4953384;28;20027;-79
2022/02/12 13:11:28;;;;;;;60.17;50.37;;;;;;;;;;4955712;28;20511;-82
2022/02/12 13:14:06;;;;;;;55.13;49.20;;;;;;;;;;4960865;28;20023;-82
2022/02/12 13:16:34;;;;;;;55.03;49.47;;;;;;;;;;4974838;28;20031;-81
2022/02/12 13:19:03;;;;;;;55.42;49.67;;;;;;;;;;4961828;28;20050;-79
2022/02/12 13:21:28;;;;;;;55.58;49.63;;;;;;;;;;4959003;28;20117;-82
2022/02/12 13:24:00;;;;;;;55.03;49.42;;;;;;;;;;4955076;28;20027;-81
2022/02/12 13:26:26;;;;;;;55.72;49.80;;;;;;;;;;4956171;28;20028;-82
2022/02/12 13:28:51;;;;;;;57.75;50.92;;;;;;;;;;4959731;28;20026;-80
2022/02/12 13:31:16;;;;;;;55.47;49.30;;;;;;;;;;4962066;28;20034;-80
2022/02/12 13:33:55;;;;;;;55.90;50.00;;;;;;;;;;4961445;28;20079;-81
2022/02/12 13:36:20;;;;;;;57.30;50.72;;;;;;;;;;4957963;29;20046;-81
2022/02/12 13:38:45;;;;;;;57.67;50.83;;;;;;;;;;4964296;28;20498;-81
2022/02/12 13:41:11;;;;;;;58.00;49.77;;;;;;;;;;4961126;29;20126;-79
2022/02/12 13:43:43;;;;;;;57.73;50.63;;;;;;;;;;4958229;29;20028;-80
2022/02/12 13:46:08;;;;;;;56.25;50.40;;;;;;;;;;4960475;28;20023;-81
2022/02/12 13:48:41;;;;;;;56.73;50.47;;;;;;;;;;4962329;28;20090;-82
2022/02/12 13:51:08;;;;;;;58.72;51.05;;;;;;;;;;4966002;28;20035;-85
2022/02/12 13:53:41;;;;;;;56.90;50.47;;;;;;;;;;4964590;28;20019;-84
2022/02/12 13:56:08;;;;;;;55.10;49.38;;;;;;;;;;4955635;28;20024;-81
2022/02/12 13:58:34;;;;;;;56.90;50.65;;;;;;;;;;4963967;28;20030;-84
2022/02/12 14:01:00;;;;;;;54.83;49.40;;;;;;;;;;4961566;28;20023;-84
2022/02/12 14:03:43;;;;;;;56.90;50.83;;;;;;;;;;4963060;28;20050;-84
2022/02/12 14:06:09;;;;;;;55.00;49.13;;;;;;;;;;4968895;28;20027;-84
2022/02/12 14:08:34;;;;;;;54.60;49.00;;;;;;;;;;4966883;29;20041;-84
2022/02/12 14:11:00;;;;;;;56.07;50.17;;;;;;;;;;4966567;28;20027;-85
2022/02/12 14:13:25;;;;;;;56.37;50.13;;;;;;;;;;4961938;29;20125;-83
2022/02/12 14:15:57;;;;;;;58.97;50.67;;;;;;;;;;4960832;29;20015;-83
2022/02/12 14:18:25;;;;;;;55.58;49.85;;;;;;;;;;4966558;28;20027;-82
2022/02/12 14:20:50;;;;;;;57.80;51.10;;;;;;;;;;4960060;29;20026;-82
2022/02/12 14:23:17;;;;;;;55.63;49.70;;;;;;;;;;4962455;28;20024;-83
2022/02/12 14:25:42;;;;;;;;;;;;;;;;;;4958880;29;20031;-81